Tsetserleg, Mongolia
Current Conditions -  °F | °C
As of 10:00 PM on Tuesday 21 Oct 2014 (Local Time) from ZMUB Reporting Station
Clear Clear  
Wind Chill: 30°   Ceiling: Unl
Heat Index: 30°   Visibility: 4mi
Dew Point: 18°   Wind: 2mph
Humidity: 60%   Direction: NA
Pressure: 29.97"   Gusts: NA
Location:  47.46°N, 101.46°E
Report Text: ZMUB 211400Z VRB01MPS 6000NW NSC M01/M08 Q1015 BECMG 6000 RMK QFE654.4 56 NT
Loading
Personal Weather Stations






























Interactive Weather Map
Tropical Storm Tracking
New forecast layout! Learn more

10-Day Weather Forecast

Advertisements
Track Severe Weather on mobile